sensor_id;sensor_type;location;lat;lon;timestamp;temperature;humidity
52867;DHT22;38739;53.324;6.862;2023-07-31T00:01:57;16.30;99.90
52867;DHT22;38739;53.324;6.862;2023-07-31T00:04:22;16.30;99.90
52867;DHT22;38739;53.324;6.862;2023-07-31T00:06:48;16.30;99.90
52867;DHT22;38739;53.324;6.862;2023-07-31T00:09:14;16.30;99.90
52867;DHT22;38739;53.324;6.862;2023-07-31T00:11:39;16.20;99.90
52867;DHT22;38739;53.324;6.862;2023-07-31T00:14:08;16.20;99.90
52867;DHT22;38739;53.324;6.862;2023-07-31T00:16:34;16.30;99.90
52867;DHT22;38739;53.324;6.862;2023-07-31T00:18:59;16.20;99.90
52867;DHT22;38739;53.324;6.862;2023-07-31T00:21:25;16.30;99.90
52867;DHT22;38739;53.324;6.862;2023-07-31T00:23:51;16.20;99.90
52867;DHT22;38739;53.324;6.862;2023-07-31T00:26:16;16.20;99.90
52867;DHT22;38739;53.324;6.862;2023-07-31T00:28:42;16.20;99.90
52867;DHT22;38739;53.324;6.862;2023-07-31T00:31:08;16.20;99.90
52867;DHT22;38739;53.324;6.862;2023-07-31T00:33:35;16.20;99.90
52867;DHT22;38739;53.324;6.862;2023-07-31T00:36:02;16.20;99.90
52867;DHT22;38739;53.324;6.862;2023-07-31T00:38:28;16.10;99.90
52867;DHT22;38739;53.324;6.862;2023-07-31T00:40:53;16.10;99.90
52867;DHT22;38739;53.324;6.862;2023-07-31T00:43:19;16.20;99.90
52867;DHT22;38739;53.324;6.862;2023-07-31T00:45:45;16.10;99.90
52867;DHT22;38739;53.324;6.862;2023-07-31T00:48:10;16.10;99.90
52867;DHT22;38739;53.324;6.862;2023-07-31T00:50:37;16.10;99.90
52867;DHT22;38739;53.324;6.862;2023-07-31T00:53:04;16.10;99.90
52867;DHT22;38739;53.324;6.862;2023-07-31T00:55:30;16.10;99.90
52867;DHT22;38739;53.324;6.862;2023-07-31T00:57:56;16.10;99.90
52867;DHT22;38739;53.324;6.862;2023-07-31T01:00:22;16.10;99.90
52867;DHT22;38739;53.324;6.862;2023-07-31T01:02:49;16.10;99.90
52867;DHT22;38739;53.324;6.862;2023-07-31T01:05:17;16.00;99.90
52867;DHT22;38739;53.324;6.862;2023-07-31T01:08:06;16.00;99.90
52867;DHT22;38739;53.324;6.862;2023-07-31T01:10:46;16.00;99.90
52867;DHT22;38739;53.324;6.862;2023-07-31T01:13:15;16.00;99.90
52867;DHT22;38739;53.324;6.862;2023-07-31T01:15:40;15.90;99.90
52867;DHT22;38739;53.324;6.862;2023-07-31T01:18:06;16.00;99.90
52867;DHT22;38739;53.324;6.862;2023-07-31T01:20:33;16.00;99.90
52867;DHT22;38739;53.324;6.862;2023-07-31T01:26:01;15.90;99.90
52867;DHT22;38739;53.324;6.862;2023-07-31T01:28:37;15.90;99.90
52867;DHT22;38739;53.324;6.862;2023-07-31T01:31:07;15.90;99.90
52867;DHT22;38739;53.324;6.862;2023-07-31T01:33:34;15.90;99.90
52867;DHT22;38739;53.324;6.862;2023-07-31T01:36:00;15.90;99.90
52867;DHT22;38739;53.324;6.862;2023-07-31T01:38:26;15.80;99.90
52867;DHT22;38739;53.324;6.862;2023-07-31T01:40:53;15.80;99.90
52867;DHT22;38739;53.324;6.862;2023-07-31T01:43:19;15.80;99.90
52867;DHT22;38739;53.324;6.862;2023-07-31T01:45:45;15.80;99.90
52867;DHT22;38739;53.324;6.862;2023-07-31T01:48:11;15.80;99.90
52867;DHT22;38739;53.324;6.862;2023-07-31T01:50:36;15.80;99.90
52867;DHT22;38739;53.324;6.862;2023-07-31T01:53:02;15.80;99.90
52867;DHT22;38739;53.324;6.862;2023-07-31T01:55:28;15.80;99.90
52867;DHT22;38739;53.324;6.862;2023-07-31T01:57:53;15.80;99.90
52867;DHT22;38739;53.324;6.862;2023-07-31T02:00:19;15.80;99.90
52867;DHT22;38739;53.324;6.862;2023-07-31T02:02:45;15.80;99.90
52867;DHT22;38739;53.324;6.862;2023-07-31T02:05:10;15.80;99.90
52867;DHT22;38739;53.324;6.862;2023-07-31T02:07:36;15.80;99.90
52867;DHT22;38739;53.324;6.862;2023-07-31T02:10:02;15.80;99.90
52867;DHT22;38739;53.324;6.862;2023-07-31T02:12:27;15.70;99.90
52867;DHT22;38739;53.324;6.862;2023-07-31T02:14:56;15.70;99.90
52867;DHT22;38739;53.324;6.862;2023-07-31T02:17:22;15.80;99.90
52867;DHT22;38739;53.324;6.862;2023-07-31T02:19:48;15.70;99.90
52867;DHT22;38739;53.324;6.862;2023-07-31T02:22:13;15.70;99.90
52867;DHT22;38739;53.324;6.862;2023-07-31T02:24:39;15.80;99.90
52867;DHT22;38739;53.324;6.862;2023-07-31T02:27:05;15.80;99.90
52867;DHT22;38739;53.324;6.862;2023-07-31T02:29:31;15.70;99.90
52867;DHT22;38739;53.324;6.862;2023-07-31T02:31:56;15.70;99.90
52867;DHT22;38739;53.324;6.862;2023-07-31T02:34:22;15.70;99.90
52867;DHT22;38739;53.324;6.862;2023-07-31T02:36:48;15.70;99.90
52867;DHT22;38739;53.324;6.862;2023-07-31T02:39:13;15.70;99.90
52867;DHT22;38739;53.324;6.862;2023-07-31T02:41:39;15.70;99.90
52867;DHT22;38739;53.324;6.862;2023-07-31T02:44:05;15.70;99.90
52867;DHT22;38739;53.324;6.862;2023-07-31T02:46:30;15.70;99.90
52867;DHT22;38739;53.324;6.862;2023-07-31T02:48:57;15.70;99.90
52867;DHT22;38739;53.324;6.862;2023-07-31T02:51:22;15.70;99.90
52867;DHT22;38739;53.324;6.862;2023-07-31T02:53:48;15.70;99.90
52867;DHT22;38739;53.324;6.862;2023-07-31T02:56:15;15.70;99.90
52867;DHT22;38739;53.324;6.862;2023-07-31T02:58:40;15.60;99.90
52867;DHT22;38739;53.324;6.862;2023-07-31T03:01:06;15.60;99.90
52867;DHT22;38739;53.324;6.862;2023-07-31T03:03:32;15.70;99.90
52867;DHT22;38739;53.324;6.862;2023-07-31T03:05:57;15.60;99.90
52867;DHT22;38739;53.324;6.862;2023-07-31T03:08:23;15.60;99.90
52867;DHT22;38739;53.324;6.862;2023-07-31T03:10:49;15.60;99.90
52867;DHT22;38739;53.324;6.862;2023-07-31T03:13:14;15.60;99.90
52867;DHT22;38739;53.324;6.862;2023-07-31T03:15:42;15.60;99.90
52867;DHT22;38739;53.324;6.862;2023-07-31T03:18:09;15.60;99.90
52867;DHT22;38739;53.324;6.862;2023-07-31T03:20:34;15.50;99.90
52867;DHT22;38739;53.324;6.862;2023-07-31T03:23:00;15.60;99.90
52867;DHT22;38739;53.324;6.862;2023-07-31T03:25:26;15.50;99.90
52867;DHT22;38739;53.324;6.862;2023-07-31T03:27:51;15.50;99.90
52867;DHT22;38739;53.324;6.862;2023-07-31T03:30:17;15.50;99.90
52867;DHT22;38739;53.324;6.862;2023-07-31T03:32:43;15.60;99.90
52867;DHT22;38739;53.324;6.862;2023-07-31T03:35:08;15.50;99.90
52867;DHT22;38739;53.324;6.862;2023-07-31T03:37:34;15.50;99.90
52867;DHT22;38739;53.324;6.862;2023-07-31T03:40:00;15.50;99.90
52867;DHT22;38739;53.324;6.862;2023-07-31T03:42:25;15.50;99.90
52867;DHT22;38739;53.324;6.862;2023-07-31T03:44:51;15.50;99.90
52867;DHT22;38739;53.324;6.862;2023-07-31T03:47:17;15.50;99.90
52867;DHT22;38739;53.324;6.862;2023-07-31T03:49:42;15.50;99.90
52867;DHT22;38739;53.324;6.862;2023-07-31T03:52:08;15.50;99.90
52867;DHT22;38739;53.324;6.862;2023-07-31T03:54:34;15.50;99.90
52867;DHT22;38739;53.324;6.862;2023-07-31T03:56:59;15.50;99.90
52867;DHT22;38739;53.324;6.862;2023-07-31T03:59:25;15.50;99.90
52867;DHT22;38739;53.324;6.862;2023-07-31T04:01:51;15.50;99.90
52867;DHT22;38739;53.324;6.862;2023-07-31T04:04:16;15.50;99.90
52867;DHT22;38739;53.324;6.862;2023-07-31T04:06:42;15.40;99.90
52867;DHT22;38739;53.324;6.862;2023-07-31T04:09:08;15.50;99.90
52867;DHT22;38739;53.324;6.862;2023-07-31T04:11:33;15.50;99.90
52867;DHT22;38739;53.324;6.862;2023-07-31T04:13:59;15.50;99.90
52867;DHT22;38739;53.324;6.862;2023-07-31T04:16:25;15.50;99.90
52867;DHT22;38739;53.324;6.862;2023-07-31T04:18:50;15.50;99.90
52867;DHT22;38739;53.324;6.862;2023-07-31T04:21:16;15.50;99.90
52867;DHT22;38739;53.324;6.862;2023-07-31T04:23:43;15.50;99.90
52867;DHT22;38739;53.324;6.862;2023-07-31T04:26:08;15.50;99.90
52867;DHT22;38739;53.324;6.862;2023-07-31T04:28:34;15.50;99.90
52867;DHT22;38739;53.324;6.862;2023-07-31T04:31:00;15.50;99.90
52867;DHT22;38739;53.324;6.862;2023-07-31T04:33:25;15.50;99.90
52867;DHT22;38739;53.324;6.862;2023-07-31T04:35:52;15.50;99.90
52867;DHT22;38739;53.324;6.862;2023-07-31T04:38:19;15.50;99.90
52867;DHT22;38739;53.324;6.862;2023-07-31T04:40:46;15.50;99.90
52867;DHT22;38739;53.324;6.862;2023-07-31T04:43:12;15.60;99.90
52867;DHT22;38739;53.324;6.862;2023-07-31T04:45:37;15.50;99.90
52867;DHT22;38739;53.324;6.862;2023-07-31T04:48:03;15.60;99.90
52867;DHT22;38739;53.324;6.862;2023-07-31T04:50:29;15.50;99.90
52867;DHT22;38739;53.324;6.862;2023-07-31T04:52:56;15.50;99.90
52867;DHT22;38739;53.324;6.862;2023-07-31T04:55:22;15.60;99.90
52867;DHT22;38739;53.324;6.862;2023-07-31T04:57:47;15.60;99.90
52867;DHT22;38739;53.324;6.862;2023-07-31T05:00:13;15.50;99.90
52867;DHT22;38739;53.324;6.862;2023-07-31T05:02:39;15.60;99.90
52867;DHT22;38739;53.324;6.862;2023-07-31T05:05:05;15.60;99.90
52867;DHT22;38739;53.324;6.862;2023-07-31T05:07:30;15.60;99.90
52867;DHT22;38739;53.324;6.862;2023-07-31T05:09:56;15.60;99.90
52867;DHT22;38739;53.324;6.862;2023-07-31T05:12:22;15.60;99.90
52867;DHT22;38739;53.324;6.862;2023-07-31T05:14:47;15.60;99.90
52867;DHT22;38739;53.324;6.862;2023-07-31T05:17:13;15.60;99.90
52867;DHT22;38739;53.324;6.862;2023-07-31T05:19:38;15.70;99.90
52867;DHT22;38739;53.324;6.862;2023-07-31T05:22:04;15.60;99.90
52867;DHT22;38739;53.324;6.862;2023-07-31T05:24:30;15.60;99.90
52867;DHT22;38739;53.324;6.862;2023-07-31T05:26:56;15.70;99.90
52867;DHT22;38739;53.324;6.862;2023-07-31T05:29:21;15.70;99.90
52867;DHT22;38739;53.324;6.862;2023-07-31T05:31:47;15.70;99.90
52867;DHT22;38739;53.324;6.862;2023-07-31T05:34:13;15.70;99.90
52867;DHT22;38739;53.324;6.862;2023-07-31T05:36:38;15.70;99.90
52867;DHT22;38739;53.324;6.862;2023-07-31T05:39:04;15.70;99.90
52867;DHT22;38739;53.324;6.862;2023-07-31T05:41:32;15.70;99.90
52867;DHT22;38739;53.324;6.862;2023-07-31T05:43:58;15.80;99.90
52867;DHT22;38739;53.324;6.862;2023-07-31T05:46:24;15.80;99.90
52867;DHT22;38739;53.324;6.862;2023-07-31T05:48:49;15.70;99.90
52867;DHT22;38739;53.324;6.862;2023-07-31T05:51:15;15.80;99.90
52867;DHT22;38739;53.324;6.862;2023-07-31T05:53:41;15.80;99.90
52867;DHT22;38739;53.324;6.862;2023-07-31T05:56:07;15.80;99.90
52867;DHT22;38739;53.324;6.862;2023-07-31T05:58:32;15.90;99.90
52867;DHT22;38739;53.324;6.862;2023-07-31T06:00:58;15.80;99.90
52867;DHT22;38739;53.324;6.862;2023-07-31T06:03:23;15.90;99.90
52867;DHT22;38739;53.324;6.862;2023-07-31T06:05:49;15.80;99.90
52867;DHT22;38739;53.324;6.862;2023-07-31T06:08:15;15.80;99.90
52867;DHT22;38739;53.324;6.862;2023-07-31T06:10:41;15.80;99.90
52867;DHT22;38739;53.324;6.862;2023-07-31T06:13:06;15.80;99.90
52867;DHT22;38739;53.324;6.862;2023-07-31T06:15:32;15.80;99.90
52867;DHT22;38739;53.324;6.862;2023-07-31T06:17:58;15.80;99.90
52867;DHT22;38739;53.324;6.862;2023-07-31T06:20:24;15.80;99.90
52867;DHT22;38739;53.324;6.862;2023-07-31T06:22:50;15.80;99.90
52867;DHT22;38739;53.324;6.862;2023-07-31T06:25:16;15.80;99.90
52867;DHT22;38739;53.324;6.862;2023-07-31T06:27:41;15.80;99.90
52867;DHT22;38739;53.324;6.862;2023-07-31T06:30:07;15.90;99.90
52867;DHT22;38739;53.324;6.862;2023-07-31T06:32:33;15.80;99.90
52867;DHT22;38739;53.324;6.862;2023-07-31T06:34:59;15.90;99.90
52867;DHT22;38739;53.324;6.862;2023-07-31T06:37:24;15.90;99.90
52867;DHT22;38739;53.324;6.862;2023-07-31T06:39:50;15.90;99.90
52867;DHT22;38739;53.324;6.862;2023-07-31T06:42:16;15.90;99.90
52867;DHT22;38739;53.324;6.862;2023-07-31T06:44:41;16.00;99.90
52867;DHT22;38739;53.324;6.862;2023-07-31T06:47:07;16.00;99.90
52867;DHT22;38739;53.324;6.862;2023-07-31T06:49:33;16.00;99.90
52867;DHT22;38739;53.324;6.862;2023-07-31T06:51:58;16.00;99.90
52867;DHT22;38739;53.324;6.862;2023-07-31T06:54:24;16.10;99.90
52867;DHT22;38739;53.324;6.862;2023-07-31T06:56:50;16.10;99.90
52867;DHT22;38739;53.324;6.862;2023-07-31T06:59:15;16.10;99.90
52867;DHT22;38739;53.324;6.862;2023-07-31T07:01:41;16.20;99.90
52867;DHT22;38739;53.324;6.862;2023-07-31T07:04:07;16.20;99.90
52867;DHT22;38739;53.324;6.862;2023-07-31T07:06:32;16.20;99.90
52867;DHT22;38739;53.324;6.862;2023-07-31T07:08:58;16.30;99.90
52867;DHT22;38739;53.324;6.862;2023-07-31T07:11:24;16.30;99.90
52867;DHT22;38739;53.324;6.862;2023-07-31T07:13:49;16.40;99.90
52867;DHT22;38739;53.324;6.862;2023-07-31T07:16:15;16.40;99.90
52867;DHT22;38739;53.324;6.862;2023-07-31T07:18:41;16.40;99.90
52867;DHT22;38739;53.324;6.862;2023-07-31T07:21:06;16.50;99.90
52867;DHT22;38739;53.324;6.862;2023-07-31T07:23:32;16.60;99.90
52867;DHT22;38739;53.324;6.862;2023-07-31T07:25:58;16.60;99.90
52867;DHT22;38739;53.324;6.862;2023-07-31T07:28:23;16.70;99.90
52867;DHT22;38739;53.324;6.862;2023-07-31T07:30:52;16.80;99.90
52867;DHT22;38739;53.324;6.862;2023-07-31T07:33:21;16.80;99.90
52867;DHT22;38739;53.324;6.862;2023-07-31T07:35:47;16.90;99.90
52867;DHT22;38739;53.324;6.862;2023-07-31T07:38:14;17.00;99.90
52867;DHT22;38739;53.324;6.862;2023-07-31T07:40:40;17.10;99.90
52867;DHT22;38739;53.324;6.862;2023-07-31T07:43:06;17.20;99.90
52867;DHT22;38739;53.324;6.862;2023-07-31T07:45:32;17.20;99.90
52867;DHT22;38739;53.324;6.862;2023-07-31T07:47:58;17.20;99.90
52867;DHT22;38739;53.324;6.862;2023-07-31T07:50:25;17.20;99.90
52867;DHT22;38739;53.324;6.862;2023-07-31T07:52:50;17.30;99.90
52867;DHT22;38739;53.324;6.862;2023-07-31T07:55:16;17.30;99.90
52867;DHT22;38739;53.324;6.862;2023-07-31T07:57:42;17.30;99.90
52867;DHT22;38739;53.324;6.862;2023-07-31T08:00:10;17.30;99.90
52867;DHT22;38739;53.324;6.862;2023-07-31T08:02:36;17.40;99.90
52867;DHT22;38739;53.324;6.862;2023-07-31T08:05:01;17.30;99.90
52867;DHT22;38739;53.324;6.862;2023-07-31T08:07:27;17.30;99.90
52867;DHT22;38739;53.324;6.862;2023-07-31T08:09:53;17.30;99.90
52867;DHT22;38739;53.324;6.862;2023-07-31T08:12:18;17.30;99.90
52867;DHT22;38739;53.324;6.862;2023-07-31T08:14:44;17.30;99.90
52867;DHT22;38739;53.324;6.862;2023-07-31T08:17:10;17.20;99.90
52867;DHT22;38739;53.324;6.862;2023-07-31T08:19:35;17.20;99.90
52867;DHT22;38739;53.324;6.862;2023-07-31T08:22:01;17.20;99.90
52867;DHT22;38739;53.324;6.862;2023-07-31T08:24:27;17.20;99.90
52867;DHT22;38739;53.324;6.862;2023-07-31T08:26:52;17.20;99.90
52867;DHT22;38739;53.324;6.862;2023-07-31T08:29:18;17.20;99.90
52867;DHT22;38739;53.324;6.862;2023-07-31T08:31:44;17.20;99.90
52867;DHT22;38739;53.324;6.862;2023-07-31T08:34:09;17.20;99.90
52867;DHT22;38739;53.324;6.862;2023-07-31T08:36:35;17.30;99.90
52867;DHT22;38739;53.324;6.862;2023-07-31T08:39:01;17.30;99.90
52867;DHT22;38739;53.324;6.862;2023-07-31T08:41:27;17.30;99.90
52867;DHT22;38739;53.324;6.862;2023-07-31T08:43:53;17.40;99.90
52867;DHT22;38739;53.324;6.862;2023-07-31T08:46:21;17.50;99.90
52867;DHT22;38739;53.324;6.862;2023-07-31T08:48:47;17.50;99.90
52867;DHT22;38739;53.324;6.862;2023-07-31T08:51:14;17.60;99.90
52867;DHT22;38739;53.324;6.862;2023-07-31T08:53:40;17.70;99.90
52867;DHT22;38739;53.324;6.862;2023-07-31T08:56:06;17.80;99.90
52867;DHT22;38739;53.324;6.862;2023-07-31T08:58:33;17.90;99.90
52867;DHT22;38739;53.324;6.862;2023-07-31T09:01:01;17.90;99.90
52867;DHT22;38739;53.324;6.862;2023-07-31T09:03:29;18.00;99.90
52867;DHT22;38739;53.324;6.862;2023-07-31T09:05:58;18.00;99.90
52867;DHT22;38739;53.324;6.862;2023-07-31T09:08:26;18.10;99.90
52867;DHT22;38739;53.324;6.862;2023-07-31T09:10:59;18.20;99.90
52867;DHT22;38739;53.324;6.862;2023-07-31T09:13:25;18.20;99.90
52867;DHT22;38739;53.324;6.862;2023-07-31T09:15:52;18.20;99.90
52867;DHT22;38739;53.324;6.862;2023-07-31T09:18:18;18.30;99.90
52867;DHT22;38739;53.324;6.862;2023-07-31T09:21:00;18.30;99.90
52867;DHT22;38739;53.324;6.862;2023-07-31T09:23:43;18.30;99.90
52867;DHT22;38739;53.324;6.862;2023-07-31T09:26:09;18.40;99.90
52867;DHT22;38739;53.324;6.862;2023-07-31T09:28:35;18.40;99.90
52867;DHT22;38739;53.324;6.862;2023-07-31T09:31:01;18.40;99.90
52867;DHT22;38739;53.324;6.862;2023-07-31T09:33:26;18.50;99.90
52867;DHT22;38739;53.324;6.862;2023-07-31T09:35:52;18.40;99.90
52867;DHT22;38739;53.324;6.862;2023-07-31T09:38:18;18.50;99.90
52867;DHT22;38739;53.324;6.862;2023-07-31T09:40:47;18.50;99.90
52867;DHT22;38739;53.324;6.862;2023-07-31T09:43:17;18.50;99.90
52867;DHT22;38739;53.324;6.862;2023-07-31T09:45:45;18.50;99.90
52867;DHT22;38739;53.324;6.862;2023-07-31T09:48:12;18.50;99.90
52867;DHT22;38739;53.324;6.862;2023-07-31T09:50:39;18.50;99.90
52867;DHT22;38739;53.324;6.862;2023-07-31T09:53:06;18.50;99.90
52867;DHT22;38739;53.324;6.862;2023-07-31T09:55:32;18.50;99.90
52867;DHT22;38739;53.324;6.862;2023-07-31T09:57:58;18.60;99.90
52867;DHT22;38739;53.324;6.862;2023-07-31T10:00:25;18.50;99.90
52867;DHT22;38739;53.324;6.862;2023-07-31T10:02:53;18.60;99.90
52867;DHT22;38739;53.324;6.862;2023-07-31T10:05:20;18.60;99.90
52867;DHT22;38739;53.324;6.862;2023-07-31T10:07:55;18.70;99.90
52867;DHT22;38739;53.324;6.862;2023-07-31T10:10:23;18.80;99.90
52867;DHT22;38739;53.324;6.862;2023-07-31T10:12:52;18.90;99.90
52867;DHT22;38739;53.324;6.862;2023-07-31T10:15:18;19.00;99.90
52867;DHT22;38739;53.324;6.862;2023-07-31T10:17:47;19.10;99.90
52867;DHT22;38739;53.324;6.862;2023-07-31T10:20:14;19.10;99.90
52867;DHT22;38739;53.324;6.862;2023-07-31T10:22:42;19.20;99.90
52867;DHT22;38739;53.324;6.862;2023-07-31T10:25:09;19.20;99.90
52867;DHT22;38739;53.324;6.862;2023-07-31T10:27:41;19.30;99.90
52867;DHT22;38739;53.324;6.862;2023-07-31T10:30:16;19.30;99.90
52867;DHT22;38739;53.324;6.862;2023-07-31T10:32:43;19.40;99.90
52867;DHT22;38739;53.324;6.862;2023-07-31T10:35:09;19.40;99.90
52867;DHT22;38739;53.324;6.862;2023-07-31T10:37:39;19.30;99.90
52867;DHT22;38739;53.324;6.862;2023-07-31T10:40:17;19.30;99.90
52867;DHT22;38739;53.324;6.862;2023-07-31T10:42:49;19.30;99.90
52867;DHT22;38739;53.324;6.862;2023-07-31T10:45:34;19.30;99.90
52867;DHT22;38739;53.324;6.862;2023-07-31T10:48:06;19.20;99.90
52867;DHT22;38739;53.324;6.862;2023-07-31T10:50:46;19.20;99.90
52867;DHT22;38739;53.324;6.862;2023-07-31T10:53:23;19.20;99.90
52867;DHT22;38739;53.324;6.862;2023-07-31T10:55:49;19.10;99.90
52867;DHT22;38739;53.324;6.862;2023-07-31T10:58:19;19.20;99.90
52867;DHT22;38739;53.324;6.862;2023-07-31T11:00:45;19.20;99.90
52867;DHT22;38739;53.324;6.862;2023-07-31T11:03:16;19.20;99.90
52867;DHT22;38739;53.324;6.862;2023-07-31T11:05:51;19.20;99.90
52867;DHT22;38739;53.324;6.862;2023-07-31T11:08:33;19.20;99.90
52867;DHT22;38739;53.324;6.862;2023-07-31T11:13:50;19.10;99.90
52867;DHT22;38739;53.324;6.862;2023-07-31T11:16:19;19.30;99.90
52867;DHT22;38739;53.324;6.862;2023-07-31T11:18:46;19.40;99.90
52867;DHT22;38739;53.324;6.862;2023-07-31T11:21:21;19.50;99.90
52867;DHT22;38739;53.324;6.862;2023-07-31T11:23:52;19.70;99.90
52867;DHT22;38739;53.324;6.862;2023-07-31T11:26:18;19.80;99.90
52867;DHT22;38739;53.324;6.862;2023-07-31T11:28:47;19.90;99.90
52867;DHT22;38739;53.324;6.862;2023-07-31T11:31:13;20.00;99.90
52867;DHT22;38739;53.324;6.862;2023-07-31T11:33:40;20.00;99.90
52867;DHT22;38739;53.324;6.862;2023-07-31T11:36:05;19.90;99.90
52867;DHT22;38739;53.324;6.862;2023-07-31T11:38:32;19.90;99.90
52867;DHT22;38739;53.324;6.862;2023-07-31T11:41:04;19.70;99.90
52867;DHT22;38739;53.324;6.862;2023-07-31T11:43:31;19.60;99.90
52867;DHT22;38739;53.324;6.862;2023-07-31T11:45:59;19.60;99.90
52867;DHT22;38739;53.324;6.862;2023-07-31T11:48:30;19.50;99.90
52867;DHT22;38739;53.324;6.862;2023-07-31T11:51:04;19.50;99.90
52867;DHT22;38739;53.324;6.862;2023-07-31T11:53:49;19.50;99.90
52867;DHT22;38739;53.324;6.862;2023-07-31T11:56:18;19.60;99.90
52867;DHT22;38739;53.324;6.862;2023-07-31T11:58:46;19.60;99.90
52867;DHT22;38739;53.324;6.862;2023-07-31T12:01:14;19.70;99.90
52867;DHT22;38739;53.324;6.862;2023-07-31T12:03:40;19.80;99.90
52867;DHT22;38739;53.324;6.862;2023-07-31T12:06:08;19.80;99.90
52867;DHT22;38739;53.324;6.862;2023-07-31T12:08:34;19.80;99.90
52867;DHT22;38739;53.324;6.862;2023-07-31T12:11:08;19.80;99.90
52867;DHT22;38739;53.324;6.862;2023-07-31T12:13:40;19.80;99.90
52867;DHT22;38739;53.324;6.862;2023-07-31T12:16:06;19.90;99.90
52867;DHT22;38739;53.324;6.862;2023-07-31T12:18:37;20.00;99.90
52867;DHT22;38739;53.324;6.862;2023-07-31T12:21:07;20.30;99.90
52867;DHT22;38739;53.324;6.862;2023-07-31T12:23:35;20.60;99.90
52867;DHT22;38739;53.324;6.862;2023-07-31T12:28:27;20.90;99.90
52867;DHT22;38739;53.324;6.862;2023-07-31T12:30:57;20.80;99.90
52867;DHT22;38739;53.324;6.862;2023-07-31T12:33:34;20.70;99.90
52867;DHT22;38739;53.324;6.862;2023-07-31T12:36:04;20.50;99.90
52867;DHT22;38739;53.324;6.862;2023-07-31T12:38:30;20.30;99.90
52867;DHT22;38739;53.324;6.862;2023-07-31T12:40:56;20.20;99.90
52867;DHT22;38739;53.324;6.862;2023-07-31T12:43:22;20.10;99.90
52867;DHT22;38739;53.324;6.862;2023-07-31T12:45:47;20.10;99.90
52867;DHT22;38739;53.324;6.862;2023-07-31T12:48:13;19.90;99.90
52867;DHT22;38739;53.324;6.862;2023-07-31T12:50:39;19.90;99.90
52867;DHT22;38739;53.324;6.862;2023-07-31T12:53:05;19.80;99.90
52867;DHT22;38739;53.324;6.862;2023-07-31T12:55:31;19.80;99.90
52867;DHT22;38739;53.324;6.862;2023-07-31T12:58:00;19.80;99.90
52867;DHT22;38739;53.324;6.862;2023-07-31T13:00:26;19.80;99.90
52867;DHT22;38739;53.324;6.862;2023-07-31T13:02:52;19.90;99.90
52867;DHT22;38739;53.324;6.862;2023-07-31T13:05:17;20.00;99.90
52867;DHT22;38739;53.324;6.862;2023-07-31T13:07:45;20.10;99.90
52867;DHT22;38739;53.324;6.862;2023-07-31T13:10:11;20.20;99.90
52867;DHT22;38739;53.324;6.862;2023-07-31T13:12:37;20.30;99.90
52867;DHT22;38739;53.324;6.862;2023-07-31T13:15:04;20.30;99.90
52867;DHT22;38739;53.324;6.862;2023-07-31T13:17:30;20.40;99.90
52867;DHT22;38739;53.324;6.862;2023-07-31T13:19:55;20.40;99.90
52867;DHT22;38739;53.324;6.862;2023-07-31T13:22:21;20.40;99.90
52867;DHT22;38739;53.324;6.862;2023-07-31T13:24:46;20.30;99.90
52867;DHT22;38739;53.324;6.862;2023-07-31T13:27:13;20.30;99.90
52867;DHT22;38739;53.324;6.862;2023-07-31T13:29:39;20.20;99.90
52867;DHT22;38739;53.324;6.862;2023-07-31T13:32:05;20.10;99.90
52867;DHT22;38739;53.324;6.862;2023-07-31T13:34:31;20.10;99.90
52867;DHT22;38739;53.324;6.862;2023-07-31T13:36:56;20.00;99.90
52867;DHT22;38739;53.324;6.862;2023-07-31T13:39:22;20.10;99.90
52867;DHT22;38739;53.324;6.862;2023-07-31T13:41:48;20.00;99.90
52867;DHT22;38739;53.324;6.862;2023-07-31T13:44:14;20.00;99.90
52867;DHT22;38739;53.324;6.862;2023-07-31T13:46:40;20.00;99.90
52867;DHT22;38739;53.324;6.862;2023-07-31T13:49:05;20.00;99.90
52867;DHT22;38739;53.324;6.862;2023-07-31T13:51:31;20.00;99.90
52867;DHT22;38739;53.324;6.862;2023-07-31T13:53:57;20.10;99.90
52867;DHT22;38739;53.324;6.862;2023-07-31T13:56:22;20.20;99.90
52867;DHT22;38739;53.324;6.862;2023-07-31T13:58:48;20.30;99.90
52867;DHT22;38739;53.324;6.862;2023-07-31T14:01:14;20.40;99.90
52867;DHT22;38739;53.324;6.862;2023-07-31T14:03:39;20.50;99.90
52867;DHT22;38739;53.324;6.862;2023-07-31T14:06:05;20.70;99.90
52867;DHT22;38739;53.324;6.862;2023-07-31T14:08:31;20.90;99.90
52867;DHT22;38739;53.324;6.862;2023-07-31T14:10:56;21.10;99.90
52867;DHT22;38739;53.324;6.862;2023-07-31T14:13:22;21.20;99.90
52867;DHT22;38739;53.324;6.862;2023-07-31T14:15:48;21.50;99.90
52867;DHT22;38739;53.324;6.862;2023-07-31T14:18:13;21.70;99.90
52867;DHT22;38739;53.324;6.862;2023-07-31T14:20:39;21.90;99.90
52867;DHT22;38739;53.324;6.862;2023-07-31T14:23:05;21.80;99.90
52867;DHT22;38739;53.324;6.862;2023-07-31T14:25:30;21.80;99.90
52867;DHT22;38739;53.324;6.862;2023-07-31T14:27:56;21.70;99.90
52867;DHT22;38739;53.324;6.862;2023-07-31T14:30:22;21.60;99.90
52867;DHT22;38739;53.324;6.862;2023-07-31T14:32:48;21.50;99.90
52867;DHT22;38739;53.324;6.862;2023-07-31T14:35:14;21.30;99.90
52867;DHT22;38739;53.324;6.862;2023-07-31T14:37:42;21.30;99.90
52867;DHT22;38739;53.324;6.862;2023-07-31T14:40:09;21.20;99.90
52867;DHT22;38739;53.324;6.862;2023-07-31T14:42:36;21.10;99.90
52867;DHT22;38739;53.324;6.862;2023-07-31T14:45:02;21.00;99.90
52867;DHT22;38739;53.324;6.862;2023-07-31T14:47:28;20.90;99.90
52867;DHT22;38739;53.324;6.862;2023-07-31T14:49:56;20.80;99.90
52867;DHT22;38739;53.324;6.862;2023-07-31T14:52:22;20.70;99.90
52867;DHT22;38739;53.324;6.862;2023-07-31T14:54:48;20.70;99.90
52867;DHT22;38739;53.324;6.862;2023-07-31T14:57:13;20.80;99.90
52867;DHT22;38739;53.324;6.862;2023-07-31T14:59:39;20.70;99.90
52867;DHT22;38739;53.324;6.862;2023-07-31T15:02:05;20.80;99.90
52867;DHT22;38739;53.324;6.862;2023-07-31T15:04:31;20.80;99.90
52867;DHT22;38739;53.324;6.862;2023-07-31T15:06:57;20.80;99.90
52867;DHT22;38739;53.324;6.862;2023-07-31T15:09:23;20.70;99.90
52867;DHT22;38739;53.324;6.862;2023-07-31T15:11:48;20.70;99.90
52867;DHT22;38739;53.324;6.862;2023-07-31T15:14:14;20.60;99.90
52867;DHT22;38739;53.324;6.862;2023-07-31T15:16:40;20.60;99.90
52867;DHT22;38739;53.324;6.862;2023-07-31T15:19:05;20.50;99.90
52867;DHT22;38739;53.324;6.862;2023-07-31T15:21:31;20.50;99.90
52867;DHT22;38739;53.324;6.862;2023-07-31T15:23:57;20.40;99.90
52867;DHT22;38739;53.324;6.862;2023-07-31T15:26:22;20.40;99.90
52867;DHT22;38739;53.324;6.862;2023-07-31T15:28:55;20.40;99.90
52867;DHT22;38739;53.324;6.862;2023-07-31T15:31:21;20.30;99.90
52867;DHT22;38739;53.324;6.862;2023-07-31T15:33:48;20.30;99.90
52867;DHT22;38739;53.324;6.862;2023-07-31T15:36:14;20.30;99.90